sensor_id;sensor_type;location;lat;lon;timestamp;pressure;altitude;pressure_sealevel;temperature;humidity
39083;BME280;24834;44.444;26.098;2022-12-18T18:21:21;102649.84;;;5.97;
39083;BME280;24834;44.444;26.098;2022-12-18T18:27:25;102658.31;;;5.99;
39083;BME280;24834;44.444;26.098;2022-12-18T18:33:27;102658.53;;;6.26;
39083;BME280;24834;44.444;26.098;2022-12-18T18:39:29;102662.59;;;6.35;
39083;BME280;24834;44.444;26.098;2022-12-18T18:45:31;102679.72;;;6.37;
39083;BME280;24834;44.444;26.098;2022-12-18T18:51:33;102688.97;;;6.40;
39083;BME280;24834;44.444;26.098;2022-12-18T18:57:36;102679.72;;;6.37;
39083;BME280;24834;44.444;26.098;2022-12-18T19:03:40;102685.94;;;6.36;
39083;BME280;24834;44.444;26.098;2022-12-18T19:09:42;102699.84;;;6.43;
39083;BME280;24834;44.444;26.098;2022-12-18T19:15:50;102703.13;;;6.24;
39083;BME280;24834;44.444;26.098;2022-12-18T19:21:53;102714.91;;;6.14;
39083;BME280;24834;44.444;26.098;2022-12-18T19:27:55;102732.78;;;6.17;
39083;BME280;24834;44.444;26.098;2022-12-18T19:33:58;102737.53;;;6.34;
39083;BME280;24834;44.444;26.098;2022-12-18T19:40:00;102746.47;;;6.19;
39083;BME280;24834;44.444;26.098;2022-12-18T19:46:15;102746.94;;;6.29;
39083;BME280;24834;44.444;26.098;2022-12-18T19:52:17;102749.78;;;6.27;
39083;BME280;24834;44.444;26.098;2022-12-18T19:58:20;102758.28;;;6.36;
39083;BME280;24834;44.444;26.098;2022-12-18T20:04:24;102756.91;;;6.19;
39083;BME280;24834;44.444;26.098;2022-12-18T20:10:27;102773.03;;;6.22;
39083;BME280;24834;44.444;26.098;2022-12-18T20:16:29;102784.16;;;6.10;
39083;BME280;24834;44.444;26.098;2022-12-18T20:22:33;102794.09;;;5.99;
39083;BME280;24834;44.444;26.098;2022-12-18T20:28:38;102790.41;;;5.94;
39083;BME280;24834;44.444;26.098;2022-12-18T20:34:41;102806.91;;;5.94;
39083;BME280;24834;44.444;26.098;2022-12-18T20:40:44;102808.53;;;5.95;
39083;BME280;24834;44.444;26.098;2022-12-18T20:46:48;102799.03;;;6.09;
39083;BME280;24834;44.444;26.098;2022-12-18T20:52:50;102808.66;;;6.09;
39083;BME280;24834;44.444;26.098;2022-12-18T20:58:56;102824.50;;;6.07;
39083;BME280;24834;44.444;26.098;2022-12-18T21:04:59;102806.81;;;5.88;
39083;BME280;24834;44.444;26.098;2022-12-18T21:11:30;102814.72;;;5.94;
39083;BME280;24834;44.444;26.098;2022-12-18T21:17:51;102819.94;;;6.16;
39083;BME280;24834;44.444;26.098;2022-12-18T21:23:54;102813.41;;;6.20;
39083;BME280;24834;44.444;26.098;2022-12-18T21:29:57;102819.22;;;6.00;
39083;BME280;24834;44.444;26.098;2022-12-18T21:36:05;102816.75;;;6.14;
39083;BME280;24834;44.444;26.098;2022-12-18T21:42:10;102823.81;;;5.98;
39083;BME280;24834;44.444;26.098;2022-12-18T21:48:31;102825.06;;;6.02;
39083;BME280;24834;44.444;26.098;2022-12-18T21:54:34;102828.50;;;5.88;
39083;BME280;24834;44.444;26.098;2022-12-18T22:00:36;102830.63;;;5.78;
39083;BME280;24834;44.444;26.098;2022-12-18T22:06:39;102830.88;;;5.83;
39083;BME280;24834;44.444;26.098;2022-12-18T22:12:43;102834.22;;;5.77;
39083;BME280;24834;44.444;26.098;2022-12-18T22:18:46;102841.06;;;5.64;
39083;BME280;24834;44.444;26.098;2022-12-18T22:24:49;102833.22;;;5.78;
39083;BME280;24834;44.444;26.098;2022-12-18T22:30:52;102839.97;;;5.73;
39083;BME280;24834;44.444;26.098;2022-12-18T22:37:00;102846.38;;;5.70;
39083;BME280;24834;44.444;26.098;2022-12-18T22:43:02;102843.59;;;5.72;
39083;BME280;24834;44.444;26.098;2022-12-18T22:49:06;102851.06;;;5.60;
39083;BME280;24834;44.444;26.098;2022-12-18T22:55:08;102834.75;;;5.43;
39083;BME280;24834;44.444;26.098;2022-12-18T23:01:22;102848.88;;;5.49;
39083;BME280;24834;44.444;26.098;2022-12-18T23:07:24;102837.94;;;5.53;
39083;BME280;24834;44.444;26.098;2022-12-18T23:13:29;102843.16;;;5.24;
39083;BME280;24834;44.444;26.098;2022-12-18T23:19:31;102850.97;;;5.24;
39083;BME280;24834;44.444;26.098;2022-12-18T23:25:33;102836.16;;;4.87;
39083;BME280;24834;44.444;26.098;2022-12-18T23:31:38;102860.88;;;4.68;
39083;BME280;24834;44.444;26.098;2022-12-18T23:37:40;102860.06;;;4.68;
39083;BME280;24834;44.444;26.098;2022-12-18T23:44:00;102872.69;;;4.79;
39083;BME280;24834;44.444;26.098;2022-12-18T23:50:05;102891.59;;;4.73;
39083;BME280;24834;44.444;26.098;2022-12-18T23:56:08;102886.81;;;4.62;
